sensor_id;sensor_type;location;lat;lon;timestamp;pressure;altitude;pressure_sealevel;temperature;humidity
21547;BME280;41275;51.912;4.388;2023-10-08T00:02:54;102321.78;;;24.85;52.05
21547;BME280;41275;51.912;4.388;2023-10-08T00:08:15;102335.13;;;24.76;52.09
21547;BME280;41275;51.912;4.388;2023-10-08T00:13:38;102334.09;;;24.72;52.15
21547;BME280;41275;51.912;4.388;2023-10-08T00:19:02;102335.28;;;24.61;52.03
21547;BME280;41275;51.912;4.388;2023-10-08T00:24:34;102329.88;;;24.56;52.22
21547;BME280;41275;51.912;4.388;2023-10-08T00:29:56;102319.41;;;24.49;52.21
21547;BME280;41275;51.912;4.388;2023-10-08T00:35:17;102302.56;;;24.52;52.29
21547;BME280;41275;51.912;4.388;2023-10-08T00:40:42;102292.53;;;24.58;51.62
21547;BME280;41275;51.912;4.388;2023-10-08T00:46:07;102280.28;;;24.65;51.52
21547;BME280;41275;51.912;4.388;2023-10-08T00:51:50;102272.03;;;24.76;51.05
21547;BME280;41275;51.912;4.388;2023-10-08T00:57:29;102279.03;;;24.82;50.60
21547;BME280;41275;51.912;4.388;2023-10-08T01:02:57;102273.84;;;24.85;50.31
21547;BME280;41275;51.912;4.388;2023-10-08T01:08:22;102298.72;;;24.87;50.38
21547;BME280;41275;51.912;4.388;2023-10-08T01:13:57;102315.31;;;24.81;50.23
21547;BME280;41275;51.912;4.388;2023-10-08T01:19:20;102298.91;;;24.72;50.30
21547;BME280;41275;51.912;4.388;2023-10-08T01:24:41;102307.59;;;24.64;50.13
21547;BME280;41275;51.912;4.388;2023-10-08T01:30:04;102289.25;;;24.61;50.48
21547;BME280;41275;51.912;4.388;2023-10-08T01:35:32;102313.03;;;24.64;50.53
21547;BME280;41275;51.912;4.388;2023-10-08T01:40:53;102283.78;;;24.66;50.58
21547;BME280;41275;51.912;4.388;2023-10-08T01:46:17;102302.19;;;24.64;50.90
21547;BME280;41275;51.912;4.388;2023-10-08T01:51:38;102314.13;;;24.63;50.86
21547;BME280;41275;51.912;4.388;2023-10-08T01:57:00;102333.06;;;24.63;50.89
21547;BME280;41275;51.912;4.388;2023-10-08T02:02:21;102338.72;;;24.66;50.84
21547;BME280;41275;51.912;4.388;2023-10-08T02:07:42;102346.56;;;24.68;51.03
21547;BME280;41275;51.912;4.388;2023-10-08T02:13:05;102343.84;;;24.68;51.15
21547;BME280;41275;51.912;4.388;2023-10-08T02:18:27;102338.16;;;24.69;51.33
21547;BME280;41275;51.912;4.388;2023-10-08T02:23:50;102338.16;;;24.69;51.46
21547;BME280;41275;51.912;4.388;2023-10-08T02:29:11;102334.59;;;24.74;51.75
21547;BME280;41275;51.912;4.388;2023-10-08T02:34:32;102335.69;;;24.73;51.74
21547;BME280;41275;51.912;4.388;2023-10-08T02:39:54;102333.84;;;24.68;52.28
21547;BME280;41275;51.912;4.388;2023-10-08T02:45:15;102340.09;;;24.64;52.10
21547;BME280;41275;51.912;4.388;2023-10-08T02:50:38;102342.78;;;24.64;52.34
21547;BME280;41275;51.912;4.388;2023-10-08T02:56:03;102343.91;;;24.63;52.53
21547;BME280;41275;51.912;4.388;2023-10-08T03:01:33;102339.59;;;24.62;52.62
21547;BME280;41275;51.912;4.388;2023-10-08T03:06:55;102330.09;;;24.64;52.71
21547;BME280;41275;51.912;4.388;2023-10-08T03:12:19;102327.94;;;24.61;53.10
21547;BME280;41275;51.912;4.388;2023-10-08T03:17:41;102335.22;;;24.66;53.06
21547;BME280;41275;51.912;4.388;2023-10-08T03:23:16;102327.84;;;24.71;52.69
21547;BME280;41275;51.912;4.388;2023-10-08T03:28:54;102352.56;;;24.65;52.87
21547;BME280;41275;51.912;4.388;2023-10-08T03:34:19;102357.53;;;24.53;53.14
21547;BME280;41275;51.912;4.388;2023-10-08T03:39:40;102362.22;;;24.42;53.20
21547;BME280;41275;51.912;4.388;2023-10-08T03:45:21;102370.34;;;24.42;53.30
21547;BME280;41275;51.912;4.388;2023-10-08T03:51:01;102386.31;;;24.38;53.24
21547;BME280;41275;51.912;4.388;2023-10-08T03:56:28;102381.72;;;24.34;53.53
21547;BME280;41275;51.912;4.388;2023-10-08T04:01:52;102376.88;;;24.31;53.56
21547;BME280;41275;51.912;4.388;2023-10-08T04:07:17;102367.16;;;24.30;53.82
21547;BME280;41275;51.912;4.388;2023-10-08T04:12:53;102376.06;;;24.30;53.68
21547;BME280;41275;51.912;4.388;2023-10-08T04:18:14;102410.44;;;24.30;53.70
21547;BME280;41275;51.912;4.388;2023-10-08T04:23:36;102419.63;;;24.29;53.96
21547;BME280;41275;51.912;4.388;2023-10-08T04:29:00;102421.00;;;24.26;53.98
21547;BME280;41275;51.912;4.388;2023-10-08T04:34:28;102419.63;;;24.29;54.13
21547;BME280;41275;51.912;4.388;2023-10-08T04:39:50;102412.59;;;24.33;54.36
21547;BME280;41275;51.912;4.388;2023-10-08T04:45:19;102406.06;;;24.34;54.35
21547;BME280;41275;51.912;4.388;2023-10-08T04:50:51;102427.19;;;24.32;54.74
21547;BME280;41275;51.912;4.388;2023-10-08T04:56:32;102442.09;;;24.24;54.69
21547;BME280;41275;51.912;4.388;2023-10-08T05:01:54;102436.19;;;24.17;54.79
21547;BME280;41275;51.912;4.388;2023-10-08T05:07:40;102420.50;;;24.19;54.84
21547;BME280;41275;51.912;4.388;2023-10-08T05:13:07;102412.69;;;24.17;54.60
21547;BME280;41275;51.912;4.388;2023-10-08T05:18:29;102415.97;;;24.09;54.90
21547;BME280;41275;51.912;4.388;2023-10-08T05:24:26;102408.72;;;23.99;54.81
21547;BME280;41275;51.912;4.388;2023-10-08T05:30:02;102407.69;;;23.85;54.89
21547;BME280;41275;51.912;4.388;2023-10-08T05:35:38;102414.50;;;23.72;55.25
21547;BME280;41275;51.912;4.388;2023-10-08T05:41:03;102419.94;;;23.57;55.33
21547;BME280;41275;51.912;4.388;2023-10-08T05:46:25;102413.19;;;23.55;55.20
21547;BME280;41275;51.912;4.388;2023-10-08T05:51:46;102411.31;;;23.50;55.25
21547;BME280;41275;51.912;4.388;2023-10-08T05:57:10;102408.91;;;23.43;55.32
21547;BME280;41275;51.912;4.388;2023-10-08T06:02:32;102407.56;;;23.36;55.63
21547;BME280;41275;51.912;4.388;2023-10-08T06:07:54;102425.16;;;23.28;55.44
21547;BME280;41275;51.912;4.388;2023-10-08T06:13:15;102424.34;;;23.17;55.83
21547;BME280;41275;51.912;4.388;2023-10-08T06:19:04;102439.75;;;23.17;55.90
21547;BME280;41275;51.912;4.388;2023-10-08T06:24:25;102462.16;;;23.17;55.88
21547;BME280;41275;51.912;4.388;2023-10-08T06:29:47;102458.38;;;23.23;56.01
21547;BME280;41275;51.912;4.388;2023-10-08T06:35:08;102466.44;;;23.49;55.79
21547;BME280;41275;51.912;4.388;2023-10-08T06:40:32;102470.75;;;23.70;55.78
21547;BME280;41275;51.912;4.388;2023-10-08T06:45:59;102477.75;;;23.71;55.72
21547;BME280;41275;51.912;4.388;2023-10-08T06:51:20;102480.44;;;23.76;55.65
21547;BME280;41275;51.912;4.388;2023-10-08T06:56:43;102495.06;;;23.75;55.82
21547;BME280;41275;51.912;4.388;2023-10-08T07:02:07;102511.25;;;23.86;55.57
21547;BME280;41275;51.912;4.388;2023-10-08T07:07:30;102507.72;;;23.85;55.39
21547;BME280;41275;51.912;4.388;2023-10-08T07:12:53;102498.81;;;23.85;55.07
21547;BME280;41275;51.912;4.388;2023-10-08T07:18:14;102505.59;;;23.72;54.97
21547;BME280;41275;51.912;4.388;2023-10-08T07:23:35;102503.13;;;23.81;54.56
21547;BME280;41275;51.912;4.388;2023-10-08T07:28:57;102520.44;;;23.80;54.19
21547;BME280;41275;51.912;4.388;2023-10-08T07:34:20;102526.41;;;23.82;53.79
21547;BME280;41275;51.912;4.388;2023-10-08T07:39:47;102538.03;;;23.72;53.74
21547;BME280;41275;51.912;4.388;2023-10-08T07:45:08;102539.09;;;23.76;53.57
21547;BME280;41275;51.912;4.388;2023-10-08T07:50:29;102548.06;;;23.66;53.23
21547;BME280;41275;51.912;4.388;2023-10-08T07:55:51;102562.34;;;23.57;53.66
21547;BME280;41275;51.912;4.388;2023-10-08T08:01:12;102565.88;;;23.52;53.33
21547;BME280;41275;51.912;4.388;2023-10-08T08:06:35;102571.00;;;23.53;53.57
21547;BME280;41275;51.912;4.388;2023-10-08T08:11:58;102574.25;;;23.50;53.43
21547;BME280;41275;51.912;4.388;2023-10-08T08:17:19;102580.44;;;23.46;53.56
21547;BME280;41275;51.912;4.388;2023-10-08T08:22:43;102580.19;;;23.52;53.41
21547;BME280;41275;51.912;4.388;2023-10-08T08:28:14;102582.91;;;23.78;53.50
21547;BME280;41275;51.912;4.388;2023-10-08T08:33:40;102584.97;;;24.22;52.69
21547;BME280;41275;51.912;4.388;2023-10-08T08:39:15;102596.81;;;24.41;52.02
21547;BME280;41275;51.912;4.388;2023-10-08T08:44:54;102599.41;;;24.72;51.74
21547;BME280;41275;51.912;4.388;2023-10-08T08:50:19;102601.44;;;24.90;51.14
21547;BME280;41275;51.912;4.388;2023-10-08T08:55:42;102595.22;;;24.90;50.92
21547;BME280;41275;51.912;4.388;2023-10-08T09:01:10;102600.22;;;25.17;50.13
21547;BME280;41275;51.912;4.388;2023-10-08T09:06:35;102603.88;;;25.36;50.07
21547;BME280;41275;51.912;4.388;2023-10-08T09:11:59;102600.34;;;25.65;49.24
21547;BME280;41275;51.912;4.388;2023-10-08T09:17:20;102593.56;;;25.97;48.88
21547;BME280;41275;51.912;4.388;2023-10-08T09:22:44;102591.78;;;25.87;47.73
21547;BME280;41275;51.912;4.388;2023-10-08T09:28:09;102593.22;;;25.79;47.58
21547;BME280;41275;51.912;4.388;2023-10-08T09:33:33;102577.97;;;25.83;47.57
21547;BME280;41275;51.912;4.388;2023-10-08T09:38:55;102588.59;;;26.04;46.98
21547;BME280;41275;51.912;4.388;2023-10-08T09:44:22;102595.41;;;26.01;46.47
21547;BME280;41275;51.912;4.388;2023-10-08T09:50:01;102601.06;;;26.05;46.72
21547;BME280;41275;51.912;4.388;2023-10-08T09:55:29;102600.47;;;25.84;46.76
21547;BME280;41275;51.912;4.388;2023-10-08T10:00:51;102606.34;;;25.62;46.72
21547;BME280;41275;51.912;4.388;2023-10-08T10:06:18;102593.94;;;25.56;47.03
21547;BME280;41275;51.912;4.388;2023-10-08T10:11:39;102589.25;;;25.95;46.84
21547;BME280;41275;51.912;4.388;2023-10-08T10:17:13;102590.63;;;25.93;46.86
21547;BME280;41275;51.912;4.388;2023-10-08T10:22:37;102593.06;;;25.94;46.95
21547;BME280;41275;51.912;4.388;2023-10-08T10:33:30;102605.69;;;25.75;46.90
21547;BME280;41275;51.912;4.388;2023-10-08T10:38:52;102607.75;;;25.54;46.64
21547;BME280;41275;51.912;4.388;2023-10-08T10:44:15;102598.81;;;25.54;46.90
21547;BME280;41275;51.912;4.388;2023-10-08T10:49:37;102601.97;;;25.66;47.22
21547;BME280;41275;51.912;4.388;2023-10-08T10:55:02;102603.91;;;25.94;46.86
21547;BME280;41275;51.912;4.388;2023-10-08T11:00:42;102600.59;;;26.70;46.00
21547;BME280;41275;51.912;4.388;2023-10-08T11:06:04;102595.00;;;26.99;44.77
21547;BME280;41275;51.912;4.388;2023-10-08T11:11:36;102590.66;;;26.98;44.63
21547;BME280;41275;51.912;4.388;2023-10-08T11:16:57;102580.38;;;26.76;44.66
21547;BME280;41275;51.912;4.388;2023-10-08T11:22:18;102578.56;;;26.90;44.08
21547;BME280;41275;51.912;4.388;2023-10-08T11:27:43;102572.75;;;26.97;44.14
21547;BME280;41275;51.912;4.388;2023-10-08T11:33:07;102571.06;;;27.01;43.94
21547;BME280;41275;51.912;4.388;2023-10-08T11:38:37;102593.59;;;27.01;43.55
21547;BME280;41275;51.912;4.388;2023-10-08T11:43:59;102585.84;;;27.13;43.93
21547;BME280;41275;51.912;4.388;2023-10-08T11:49:21;102580.41;;;27.13;44.21
21547;BME280;41275;51.912;4.388;2023-10-08T11:54:46;102584.72;;;27.14;43.76
21547;BME280;41275;51.912;4.388;2023-10-08T12:00:10;102577.88;;;26.98;43.69
21547;BME280;41275;51.912;4.388;2023-10-08T12:05:39;102569.69;;;26.65;44.53
21547;BME280;41275;51.912;4.388;2023-10-08T12:11:08;102550.94;;;26.64;44.72
21547;BME280;41275;51.912;4.388;2023-10-08T12:16:32;102539.88;;;26.79;44.87
21547;BME280;41275;51.912;4.388;2023-10-08T12:21:57;102532.41;;;27.04;44.95
21547;BME280;41275;51.912;4.388;2023-10-08T12:27:18;102524.13;;;27.14;44.34
21547;BME280;41275;51.912;4.388;2023-10-08T12:32:39;102528.03;;;27.54;44.35
21547;BME280;41275;51.912;4.388;2023-10-08T12:38:03;102513.50;;;28.55;43.05
21547;BME280;41275;51.912;4.388;2023-10-08T12:43:26;102509.09;;;28.91;42.19
21547;BME280;41275;51.912;4.388;2023-10-08T12:48:51;102508.19;;;29.49;41.41
21547;BME280;41275;51.912;4.388;2023-10-08T12:54:15;102492.38;;;29.28;40.68
21547;BME280;41275;51.912;4.388;2023-10-08T12:59:42;102492.28;;;28.66;41.24
21547;BME280;41275;51.912;4.388;2023-10-08T13:05:09;102481.94;;;28.54;41.73
21547;BME280;41275;51.912;4.388;2023-10-08T13:10:37;102483.78;;;28.31;42.19
21547;BME280;41275;51.912;4.388;2023-10-08T13:16:02;102466.31;;;28.32;42.13
21547;BME280;41275;51.912;4.388;2023-10-08T13:21:28;102467.47;;;28.18;42.38
21547;BME280;41275;51.912;4.388;2023-10-08T13:26:49;102461.53;;;28.16;42.94
21547;BME280;41275;51.912;4.388;2023-10-08T13:32:11;102459.09;;;28.28;42.99
21547;BME280;41275;51.912;4.388;2023-10-08T13:37:38;102458.69;;;28.79;42.84
21547;BME280;41275;51.912;4.388;2023-10-08T13:42:59;102456.47;;;29.83;41.66
21547;BME280;41275;51.912;4.388;2023-10-08T13:48:20;102449.97;;;30.37;40.78
21547;BME280;41275;51.912;4.388;2023-10-08T13:53:49;102454.03;;;31.03;39.81
21547;BME280;41275;51.912;4.388;2023-10-08T13:59:13;102444.03;;;31.84;39.04
21547;BME280;41275;51.912;4.388;2023-10-08T14:04:35;102449.97;;;32.70;37.38
21547;BME280;41275;51.912;4.388;2023-10-08T14:10:01;102442.84;;;33.39;36.35
21547;BME280;41275;51.912;4.388;2023-10-08T14:15:26;102441.78;;;33.92;34.75
21547;BME280;41275;51.912;4.388;2023-10-08T14:20:54;102421.75;;;34.32;34.33
21547;BME280;41275;51.912;4.388;2023-10-08T14:26:15;102424.13;;;34.34;33.62
21547;BME280;41275;51.912;4.388;2023-10-08T14:31:37;102415.44;;;34.32;33.59
21547;BME280;41275;51.912;4.388;2023-10-08T14:36:59;102403.31;;;34.05;34.07
21547;BME280;41275;51.912;4.388;2023-10-08T14:42:39;102388.00;;;33.27;34.12
21547;BME280;41275;51.912;4.388;2023-10-08T14:48:39;102374.91;;;31.66;36.01
21547;BME280;41275;51.912;4.388;2023-10-08T14:54:01;102378.09;;;30.53;37.50
21547;BME280;41275;51.912;4.388;2023-10-08T14:59:23;102367.56;;;30.00;38.94
21547;BME280;41275;51.912;4.388;2023-10-08T15:04:44;102378.28;;;29.79;39.50
21547;BME280;41275;51.912;4.388;2023-10-08T15:10:06;102381.34;;;29.60;39.70
21547;BME280;41275;51.912;4.388;2023-10-08T15:15:30;102374.88;;;29.56;40.19
21547;BME280;41275;51.912;4.388;2023-10-08T15:20:55;102372.25;;;29.33;40.93
21547;BME280;41275;51.912;4.388;2023-10-08T15:26:16;102370.19;;;28.99;41.52
21547;BME280;41275;51.912;4.388;2023-10-08T15:31:38;102381.13;;;28.77;41.93
21547;BME280;41275;51.912;4.388;2023-10-08T15:37:01;102364.03;;;28.54;42.52
21547;BME280;41275;51.912;4.388;2023-10-08T15:42:22;102371.16;;;28.27;43.32
21547;BME280;41275;51.912;4.388;2023-10-08T15:47:44;102355.13;;;28.03;43.55
21547;BME280;41275;51.912;4.388;2023-10-08T15:53:05;102357.78;;;27.95;43.83
21547;BME280;41275;51.912;4.388;2023-10-08T15:58:26;102357.88;;;27.89;44.26
21547;BME280;41275;51.912;4.388;2023-10-08T16:03:48;102352.88;;;27.69;44.86
21547;BME280;41275;51.912;4.388;2023-10-08T16:09:10;102363.38;;;27.62;44.79
21547;BME280;41275;51.912;4.388;2023-10-08T16:14:31;102362.38;;;27.58;44.67
21547;BME280;41275;51.912;4.388;2023-10-08T16:19:52;102360.97;;;27.47;44.67
21547;BME280;41275;51.912;4.388;2023-10-08T16:25:14;102345.59;;;27.14;45.24
21547;BME280;41275;51.912;4.388;2023-10-08T16:30:39;102339.09;;;26.83;45.80
21547;BME280;41275;51.912;4.388;2023-10-08T16:36:00;102336.03;;;26.57;45.89
21547;BME280;41275;51.912;4.388;2023-10-08T16:41:28;102336.28;;;26.41;46.32
21547;BME280;41275;51.912;4.388;2023-10-08T16:46:49;102339.00;;;26.23;46.71
21547;BME280;41275;51.912;4.388;2023-10-08T16:52:12;102338.00;;;26.00;46.88
21547;BME280;41275;51.912;4.388;2023-10-08T16:57:33;102327.19;;;25.76;47.54
21547;BME280;41275;51.912;4.388;2023-10-08T17:02:56;102328.56;;;25.54;47.81
21547;BME280;41275;51.912;4.388;2023-10-08T17:08:17;102321.81;;;25.33;48.65
21547;BME280;41275;51.912;4.388;2023-10-08T17:13:39;102326.53;;;25.22;48.97
21547;BME280;41275;51.912;4.388;2023-10-08T17:19:02;102313.56;;;25.19;49.31
21547;BME280;41275;51.912;4.388;2023-10-08T17:24:24;102322.03;;;25.12;49.55
21547;BME280;41275;51.912;4.388;2023-10-08T17:29:45;102316.91;;;25.11;49.88
21547;BME280;41275;51.912;4.388;2023-10-08T17:35:07;102294.16;;;25.07;50.19
21547;BME280;41275;51.912;4.388;2023-10-08T17:40:30;102292.91;;;24.99;50.38
21547;BME280;41275;51.912;4.388;2023-10-08T17:45:51;102271.59;;;24.92;50.26
21547;BME280;41275;51.912;4.388;2023-10-08T17:51:13;102271.63;;;24.87;50.80
21547;BME280;41275;51.912;4.388;2023-10-08T17:56:37;102273.44;;;24.73;51.08
21547;BME280;41275;51.912;4.388;2023-10-08T18:01:59;102268.59;;;24.70;51.44
21547;BME280;41275;51.912;4.388;2023-10-08T18:07:20;102261.84;;;24.67;51.06
21547;BME280;41275;51.912;4.388;2023-10-08T18:12:42;102254.88;;;24.61;51.60
21547;BME280;41275;51.912;4.388;2023-10-08T18:18:03;102261.41;;;24.55;51.86
21547;BME280;41275;51.912;4.388;2023-10-08T18:23:30;102280.66;;;24.54;51.99
21547;BME280;41275;51.912;4.388;2023-10-08T18:28:51;102275.50;;;24.52;52.08
21547;BME280;41275;51.912;4.388;2023-10-08T18:34:15;102282.59;;;24.48;52.09
21547;BME280;41275;51.912;4.388;2023-10-08T18:39:38;102279.16;;;24.37;52.12
21547;BME280;41275;51.912;4.388;2023-10-08T18:44:59;102284.16;;;24.20;52.66
21547;BME280;41275;51.912;4.388;2023-10-08T18:50:20;102275.28;;;24.14;52.78
21547;BME280;41275;51.912;4.388;2023-10-08T18:55:43;102267.50;;;24.08;52.94
21547;BME280;41275;51.912;4.388;2023-10-08T19:01:04;102255.97;;;23.92;52.83
21547;BME280;41275;51.912;4.388;2023-10-08T19:06:27;102254.97;;;23.83;53.06
21547;BME280;41275;51.912;4.388;2023-10-08T19:11:50;102256.63;;;23.73;53.57
21547;BME280;41275;51.912;4.388;2023-10-08T19:17:12;102250.75;;;23.66;53.54
21547;BME280;41275;51.912;4.388;2023-10-08T19:22:35;102229.94;;;23.62;53.76
21547;BME280;41275;51.912;4.388;2023-10-08T19:27:57;102227.28;;;23.57;53.53
21547;BME280;41275;51.912;4.388;2023-10-08T19:33:22;102217.59;;;23.45;53.95
21547;BME280;41275;51.912;4.388;2023-10-08T19:38:44;102209.56;;;23.35;54.16
21547;BME280;41275;51.912;4.388;2023-10-08T19:44:05;102213.38;;;23.29;54.20
21547;BME280;41275;51.912;4.388;2023-10-08T19:49:26;102208.00;;;23.24;54.36
21547;BME280;41275;51.912;4.388;2023-10-08T19:54:48;102225.03;;;23.24;54.58
21547;BME280;41275;51.912;4.388;2023-10-08T20:00:10;102213.97;;;23.21;54.86
21547;BME280;41275;51.912;4.388;2023-10-08T20:05:34;102203.44;;;23.14;55.22
21547;BME280;41275;51.912;4.388;2023-10-08T20:10:56;102201.59;;;23.15;55.26
21547;BME280;41275;51.912;4.388;2023-10-08T20:16:17;102198.88;;;23.10;55.14
21547;BME280;41275;51.912;4.388;2023-10-08T20:21:40;102204.59;;;23.08;55.34
21547;BME280;41275;51.912;4.388;2023-10-08T20:27:07;102204.59;;;23.08;55.33
21547;BME280;41275;51.912;4.388;2023-10-08T20:32:32;102202.13;;;23.07;55.43
21547;BME280;41275;51.912;4.388;2023-10-08T20:37:56;102187.31;;;22.99;55.48
21547;BME280;41275;51.912;4.388;2023-10-08T20:43:18;102182.47;;;23.01;55.20
21547;BME280;41275;51.912;4.388;2023-10-08T20:48:39;102166.78;;;23.08;55.37
21547;BME280;41275;51.912;4.388;2023-10-08T20:54:01;102167.75;;;23.22;55.09
21547;BME280;41275;51.912;4.388;2023-10-08T20:59:24;102152.66;;;23.26;54.76
21547;BME280;41275;51.912;4.388;2023-10-08T21:04:45;102154.50;;;23.31;54.33
21547;BME280;41275;51.912;4.388;2023-10-08T21:10:11;102160.41;;;23.33;53.90
21547;BME280;41275;51.912;4.388;2023-10-08T21:15:33;102163.38;;;23.37;53.36
21547;BME280;41275;51.912;4.388;2023-10-08T21:21:00;102153.38;;;23.37;53.19
21547;BME280;41275;51.912;4.388;2023-10-08T21:26:24;102152.31;;;23.33;53.05
21547;BME280;41275;51.912;4.388;2023-10-08T21:31:45;102151.53;;;23.27;52.81
21547;BME280;41275;51.912;4.388;2023-10-08T21:37:07;102152.09;;;23.24;53.12
21547;BME280;41275;51.912;4.388;2023-10-08T21:42:31;102133.19;;;23.24;53.03
21547;BME280;41275;51.912;4.388;2023-10-08T21:47:52;102147.25;;;23.26;52.79
21547;BME280;41275;51.912;4.388;2023-10-08T21:53:13;102138.31;;;23.26;52.86
21547;BME280;41275;51.912;4.388;2023-10-08T21:58:35;102144.00;;;23.24;52.67
21547;BME280;41275;51.912;4.388;2023-10-08T22:03:56;102136.44;;;23.26;52.49
21547;BME280;41275;51.912;4.388;2023-10-08T22:09:18;102123.19;;;23.25;52.49
21547;BME280;41275;51.912;4.388;2023-10-08T22:14:39;102121.84;;;23.27;52.62
21547;BME280;41275;51.912;4.388;2023-10-08T22:20:06;102121.03;;;23.27;52.24
21547;BME280;41275;51.912;4.388;2023-10-08T22:25:49;102128.03;;;23.28;52.33
21547;BME280;41275;51.912;4.388;2023-10-08T22:31:11;102117.75;;;23.30;52.38
21547;BME280;41275;51.912;4.388;2023-10-08T22:36:36;102121.78;;;23.33;51.83
21547;BME280;41275;51.912;4.388;2023-10-08T22:42:08;102126.88;;;23.39;51.74
21547;BME280;41275;51.912;4.388;2023-10-08T22:47:29;102118.78;;;23.39;51.65
21547;BME280;41275;51.912;4.388;2023-10-08T22:52:53;102134.41;;;23.47;51.27
21547;BME280;41275;51.912;4.388;2023-10-08T22:58:15;102109.47;;;23.56;51.16
21547;BME280;41275;51.912;4.388;2023-10-08T23:03:41;102103.22;;;23.60;51.11
21547;BME280;41275;51.912;4.388;2023-10-08T23:09:08;102072.91;;;23.68;50.86
21547;BME280;41275;51.912;4.388;2023-10-08T23:14:30;102082.00;;;23.77;50.56
21547;BME280;41275;51.912;4.388;2023-10-08T23:19:52;102078.72;;;23.81;50.57
21547;BME280;41275;51.912;4.388;2023-10-08T23:25:14;102069.75;;;23.85;50.51
21547;BME280;41275;51.912;4.388;2023-10-08T23:30:35;102053.22;;;23.92;50.43
21547;BME280;41275;51.912;4.388;2023-10-08T23:36:02;102045.03;;;23.97;50.33
21547;BME280;41275;51.912;4.388;2023-10-08T23:41:25;102027.38;;;24.05;49.93
21547;BME280;41275;51.912;4.388;2023-10-08T23:46:53;102036.25;;;24.10;49.72
21547;BME280;41275;51.912;4.388;2023-10-08T23:52:24;102033.47;;;24.15;49.70
21547;BME280;41275;51.912;4.388;2023-10-08T23:57:45;102045.09;;;24.16;49.91
